sensor_id;sensor_type;location;lat;lon;timestamp;P1;durP1;ratioP1;P2;durP2;ratioP2
60478;SDS011;46321;48.398;11.754;2023-05-07T00:00:58;9.63;;;6.03;;
60478;SDS011;46321;48.398;11.754;2023-05-07T00:03:24;13.32;;;6.13;;
60478;SDS011;46321;48.398;11.754;2023-05-07T00:05:51;9.20;;;5.47;;
60478;SDS011;46321;48.398;11.754;2023-05-07T00:08:17;9.73;;;5.25;;
60478;SDS011;46321;48.398;11.754;2023-05-07T00:10:43;8.93;;;5.38;;
60478;SDS011;46321;48.398;11.754;2023-05-07T00:13:09;8.48;;;5.50;;
60478;SDS011;46321;48.398;11.754;2023-05-07T00:15:34;7.25;;;5.05;;
60478;SDS011;46321;48.398;11.754;2023-05-07T00:17:59;7.18;;;4.55;;
60478;SDS011;46321;48.398;11.754;2023-05-07T00:20:25;8.02;;;4.70;;
60478;SDS011;46321;48.398;11.754;2023-05-07T00:22:50;6.10;;;4.40;;
60478;SDS011;46321;48.398;11.754;2023-05-07T00:25:15;7.72;;;5.10;;
60478;SDS011;46321;48.398;11.754;2023-05-07T00:27:41;8.18;;;4.38;;
60478;SDS011;46321;48.398;11.754;2023-05-07T00:30:06;11.45;;;4.95;;
60478;SDS011;46321;48.398;11.754;2023-05-07T00:32:33;7.03;;;4.53;;
60478;SDS011;46321;48.398;11.754;2023-05-07T00:34:58;11.57;;;4.97;;
60478;SDS011;46321;48.398;11.754;2023-05-07T00:37:23;8.18;;;4.80;;
60478;SDS011;46321;48.398;11.754;2023-05-07T00:39:49;6.32;;;4.80;;
60478;SDS011;46321;48.398;11.754;2023-05-07T00:42:14;9.20;;;4.65;;
60478;SDS011;46321;48.398;11.754;2023-05-07T00:44:41;10.35;;;5.30;;
60478;SDS011;46321;48.398;11.754;2023-05-07T00:47:06;10.07;;;5.20;;
60478;SDS011;46321;48.398;11.754;2023-05-07T00:49:39;7.97;;;4.95;;
60478;SDS011;46321;48.398;11.754;2023-05-07T00:52:08;7.32;;;5.25;;
60478;SDS011;46321;48.398;11.754;2023-05-07T00:54:35;7.40;;;4.82;;
60478;SDS011;46321;48.398;11.754;2023-05-07T00:57:02;8.93;;;5.25;;
60478;SDS011;46321;48.398;11.754;2023-05-07T00:59:28;8.90;;;4.90;;
60478;SDS011;46321;48.398;11.754;2023-05-07T01:01:54;9.05;;;4.95;;
60478;SDS011;46321;48.398;11.754;2023-05-07T01:04:19;8.77;;;5.20;;
60478;SDS011;46321;48.398;11.754;2023-05-07T01:06:44;7.05;;;4.95;;
60478;SDS011;46321;48.398;11.754;2023-05-07T01:09:11;9.35;;;5.00;;
60478;SDS011;46321;48.398;11.754;2023-05-07T01:11:37;6.97;;;4.70;;
60478;SDS011;46321;48.398;11.754;2023-05-07T01:14:04;8.35;;;5.05;;
60478;SDS011;46321;48.398;11.754;2023-05-07T01:16:29;5.45;;;4.55;;
60478;SDS011;46321;48.398;11.754;2023-05-07T01:18:55;9.63;;;4.60;;
60478;SDS011;46321;48.398;11.754;2023-05-07T01:21:20;9.32;;;4.68;;
60478;SDS011;46321;48.398;11.754;2023-05-07T01:23:51;20.10;;;6.20;;
60478;SDS011;46321;48.398;11.754;2023-05-07T01:26:17;7.57;;;4.75;;
60478;SDS011;46321;48.398;11.754;2023-05-07T01:28:44;6.65;;;4.80;;
60478;SDS011;46321;48.398;11.754;2023-05-07T01:31:09;6.15;;;4.20;;
60478;SDS011;46321;48.398;11.754;2023-05-07T01:33:36;6.72;;;4.50;;
60478;SDS011;46321;48.398;11.754;2023-05-07T01:36:04;8.77;;;4.63;;
60478;SDS011;46321;48.398;11.754;2023-05-07T01:38:32;7.60;;;4.50;;
60478;SDS011;46321;48.398;11.754;2023-05-07T01:40:57;7.85;;;4.35;;
60478;SDS011;46321;48.398;11.754;2023-05-07T01:43:23;6.28;;;4.30;;
60478;SDS011;46321;48.398;11.754;2023-05-07T01:45:48;4.63;;;3.78;;
60478;SDS011;46321;48.398;11.754;2023-05-07T01:48:14;6.15;;;3.70;;
60478;SDS011;46321;48.398;11.754;2023-05-07T01:50:40;7.68;;;3.72;;
60478;SDS011;46321;48.398;11.754;2023-05-07T01:53:07;8.27;;;3.97;;
60478;SDS011;46321;48.398;11.754;2023-05-07T01:55:33;7.40;;;4.30;;
60478;SDS011;46321;48.398;11.754;2023-05-07T01:57:58;6.28;;;4.35;;
60478;SDS011;46321;48.398;11.754;2023-05-07T02:00:23;7.95;;;4.40;;
60478;SDS011;46321;48.398;11.754;2023-05-07T02:02:48;9.57;;;4.28;;
60478;SDS011;46321;48.398;11.754;2023-05-07T02:05:14;6.60;;;4.32;;
60478;SDS011;46321;48.398;11.754;2023-05-07T02:07:39;6.78;;;4.00;;
60478;SDS011;46321;48.398;11.754;2023-05-07T02:10:04;6.35;;;3.97;;
60478;SDS011;46321;48.398;11.754;2023-05-07T02:12:31;6.00;;;4.30;;
60478;SDS011;46321;48.398;11.754;2023-05-07T02:14:56;8.30;;;4.30;;
60478;SDS011;46321;48.398;11.754;2023-05-07T02:17:21;8.70;;;4.75;;
60478;SDS011;46321;48.398;11.754;2023-05-07T02:19:46;7.03;;;4.15;;
60478;SDS011;46321;48.398;11.754;2023-05-07T02:22:12;8.23;;;5.30;;
60478;SDS011;46321;48.398;11.754;2023-05-07T02:24:37;7.80;;;4.78;;
60478;SDS011;46321;48.398;11.754;2023-05-07T02:27:02;7.70;;;4.57;;
60478;SDS011;46321;48.398;11.754;2023-05-07T02:29:28;6.38;;;4.45;;
60478;SDS011;46321;48.398;11.754;2023-05-07T02:31:53;7.18;;;4.47;;
60478;SDS011;46321;48.398;11.754;2023-05-07T02:34:19;9.23;;;4.35;;
60478;SDS011;46321;48.398;11.754;2023-05-07T02:36:44;5.82;;;4.38;;
60478;SDS011;46321;48.398;11.754;2023-05-07T02:39:10;7.68;;;4.57;;
60478;SDS011;46321;48.398;11.754;2023-05-07T02:41:36;7.00;;;4.63;;
60478;SDS011;46321;48.398;11.754;2023-05-07T02:44:01;5.60;;;4.32;;
60478;SDS011;46321;48.398;11.754;2023-05-07T02:46:26;8.23;;;5.15;;
60478;SDS011;46321;48.398;11.754;2023-05-07T02:48:51;6.20;;;4.32;;
60478;SDS011;46321;48.398;11.754;2023-05-07T02:51:20;6.82;;;4.97;;
60478;SDS011;46321;48.398;11.754;2023-05-07T02:53:46;5.43;;;4.53;;
60478;SDS011;46321;48.398;11.754;2023-05-07T02:56:12;9.40;;;4.78;;
60478;SDS011;46321;48.398;11.754;2023-05-07T02:58:37;8.63;;;5.35;;
60478;SDS011;46321;48.398;11.754;2023-05-07T03:01:04;8.65;;;5.43;;
60478;SDS011;46321;48.398;11.754;2023-05-07T03:03:30;8.38;;;5.50;;
60478;SDS011;46321;48.398;11.754;2023-05-07T03:05:55;8.23;;;5.30;;
60478;SDS011;46321;48.398;11.754;2023-05-07T03:08:20;9.90;;;5.30;;
60478;SDS011;46321;48.398;11.754;2023-05-07T03:10:46;7.95;;;5.47;;
60478;SDS011;46321;48.398;11.754;2023-05-07T03:13:11;9.10;;;5.65;;
60478;SDS011;46321;48.398;11.754;2023-05-07T03:15:36;9.90;;;5.97;;
60478;SDS011;46321;48.398;11.754;2023-05-07T03:18:02;10.65;;;6.72;;
60478;SDS011;46321;48.398;11.754;2023-05-07T03:20:27;9.45;;;5.72;;
60478;SDS011;46321;48.398;11.754;2023-05-07T03:22:52;9.07;;;5.07;;
60478;SDS011;46321;48.398;11.754;2023-05-07T03:25:18;8.30;;;6.05;;
60478;SDS011;46321;48.398;11.754;2023-05-07T03:27:43;8.30;;;5.77;;
60478;SDS011;46321;48.398;11.754;2023-05-07T03:30:08;7.45;;;4.80;;
60478;SDS011;46321;48.398;11.754;2023-05-07T03:32:34;10.68;;;5.28;;
60478;SDS011;46321;48.398;11.754;2023-05-07T03:35:00;8.60;;;5.45;;
60478;SDS011;46321;48.398;11.754;2023-05-07T03:37:26;7.70;;;5.53;;
60478;SDS011;46321;48.398;11.754;2023-05-07T03:39:51;7.45;;;5.22;;
60478;SDS011;46321;48.398;11.754;2023-05-07T03:42:16;8.00;;;5.20;;
60478;SDS011;46321;48.398;11.754;2023-05-07T03:44:42;7.32;;;5.57;;
60478;SDS011;46321;48.398;11.754;2023-05-07T03:47:07;8.45;;;5.93;;
60478;SDS011;46321;48.398;11.754;2023-05-07T03:49:32;9.00;;;5.90;;
60478;SDS011;46321;48.398;11.754;2023-05-07T03:51:58;8.20;;;5.72;;
60478;SDS011;46321;48.398;11.754;2023-05-07T03:54:23;14.63;;;7.03;;
60478;SDS011;46321;48.398;11.754;2023-05-07T03:56:48;8.40;;;6.13;;
60478;SDS011;46321;48.398;11.754;2023-05-07T03:59:14;9.02;;;6.30;;
60478;SDS011;46321;48.398;11.754;2023-05-07T04:01:39;14.70;;;6.32;;
60478;SDS011;46321;48.398;11.754;2023-05-07T04:04:05;12.20;;;6.40;;
60478;SDS011;46321;48.398;11.754;2023-05-07T04:06:31;9.00;;;6.30;;
60478;SDS011;46321;48.398;11.754;2023-05-07T04:08:56;12.43;;;6.95;;
60478;SDS011;46321;48.398;11.754;2023-05-07T04:11:22;8.48;;;6.53;;
60478;SDS011;46321;48.398;11.754;2023-05-07T04:13:47;10.32;;;7.07;;
60478;SDS011;46321;48.398;11.754;2023-05-07T04:16:12;12.38;;;7.07;;
60478;SDS011;46321;48.398;11.754;2023-05-07T04:18:38;11.70;;;6.75;;
60478;SDS011;46321;48.398;11.754;2023-05-07T04:21:03;12.40;;;6.80;;
60478;SDS011;46321;48.398;11.754;2023-05-07T04:23:29;10.05;;;6.75;;
60478;SDS011;46321;48.398;11.754;2023-05-07T04:25:54;9.40;;;6.32;;
60478;SDS011;46321;48.398;11.754;2023-05-07T04:28:20;9.98;;;6.63;;
60478;SDS011;46321;48.398;11.754;2023-05-07T04:30:45;9.30;;;6.68;;
60478;SDS011;46321;48.398;11.754;2023-05-07T04:33:11;10.82;;;6.75;;
60478;SDS011;46321;48.398;11.754;2023-05-07T04:35:36;10.98;;;7.32;;
60478;SDS011;46321;48.398;11.754;2023-05-07T04:38:02;9.63;;;7.13;;
60478;SDS011;46321;48.398;11.754;2023-05-07T04:40:27;9.85;;;6.97;;
60478;SDS011;46321;48.398;11.754;2023-05-07T04:42:52;9.77;;;6.55;;
60478;SDS011;46321;48.398;11.754;2023-05-07T04:45:18;12.43;;;7.05;;
60478;SDS011;46321;48.398;11.754;2023-05-07T04:47:43;10.02;;;6.93;;
60478;SDS011;46321;48.398;11.754;2023-05-07T04:50:09;9.68;;;6.68;;
60478;SDS011;46321;48.398;11.754;2023-05-07T04:52:34;11.02;;;6.72;;
60478;SDS011;46321;48.398;11.754;2023-05-07T04:55:00;9.85;;;6.82;;
60478;SDS011;46321;48.398;11.754;2023-05-07T04:57:25;10.02;;;6.22;;
60478;SDS011;46321;48.398;11.754;2023-05-07T04:59:51;10.88;;;7.10;;
60478;SDS011;46321;48.398;11.754;2023-05-07T05:02:16;11.68;;;6.78;;
60478;SDS011;46321;48.398;11.754;2023-05-07T05:04:42;8.45;;;6.25;;
60478;SDS011;46321;48.398;11.754;2023-05-07T05:07:07;10.45;;;6.90;;
60478;SDS011;46321;48.398;11.754;2023-05-07T05:09:32;9.95;;;6.82;;
60478;SDS011;46321;48.398;11.754;2023-05-07T05:11:58;8.70;;;6.25;;
60478;SDS011;46321;48.398;11.754;2023-05-07T05:14:24;9.20;;;6.20;;
60478;SDS011;46321;48.398;11.754;2023-05-07T05:16:49;8.48;;;6.25;;
60478;SDS011;46321;48.398;11.754;2023-05-07T05:19:14;10.60;;;6.53;;
60478;SDS011;46321;48.398;11.754;2023-05-07T05:21:39;9.15;;;6.38;;
60478;SDS011;46321;48.398;11.754;2023-05-07T05:24:05;7.88;;;6.20;;
60478;SDS011;46321;48.398;11.754;2023-05-07T05:26:30;10.70;;;8.00;;
60478;SDS011;46321;48.398;11.754;2023-05-07T05:28:56;15.88;;;9.50;;
60478;SDS011;46321;48.398;11.754;2023-05-07T05:31:21;10.60;;;6.40;;
60478;SDS011;46321;48.398;11.754;2023-05-07T05:33:46;8.98;;;6.18;;
60478;SDS011;46321;48.398;11.754;2023-05-07T05:36:12;8.35;;;5.57;;
60478;SDS011;46321;48.398;11.754;2023-05-07T05:38:38;7.53;;;5.47;;
60478;SDS011;46321;48.398;11.754;2023-05-07T05:41:04;7.22;;;5.72;;
60478;SDS011;46321;48.398;11.754;2023-05-07T05:43:29;7.55;;;5.72;;
60478;SDS011;46321;48.398;11.754;2023-05-07T05:45:55;7.15;;;5.55;;
60478;SDS011;46321;48.398;11.754;2023-05-07T05:48:21;7.65;;;5.70;;
60478;SDS011;46321;48.398;11.754;2023-05-07T05:50:46;10.32;;;5.80;;
60478;SDS011;46321;48.398;11.754;2023-05-07T05:53:11;8.65;;;6.15;;
60478;SDS011;46321;48.398;11.754;2023-05-07T05:55:36;10.85;;;5.38;;
60478;SDS011;46321;48.398;11.754;2023-05-07T05:58:02;9.63;;;5.85;;
60478;SDS011;46321;48.398;11.754;2023-05-07T06:00:27;10.70;;;5.95;;
60478;SDS011;46321;48.398;11.754;2023-05-07T06:02:53;7.95;;;5.82;;
60478;SDS011;46321;48.398;11.754;2023-05-07T06:05:18;8.17;;;5.40;;
60478;SDS011;46321;48.398;11.754;2023-05-07T06:07:44;11.25;;;5.78;;
60478;SDS011;46321;48.398;11.754;2023-05-07T06:10:09;7.70;;;5.63;;
60478;SDS011;46321;48.398;11.754;2023-05-07T06:12:35;7.82;;;5.70;;
60478;SDS011;46321;48.398;11.754;2023-05-07T06:15:00;7.35;;;5.75;;
60478;SDS011;46321;48.398;11.754;2023-05-07T06:17:26;9.10;;;5.90;;
60478;SDS011;46321;48.398;11.754;2023-05-07T06:19:51;9.27;;;6.47;;
60478;SDS011;46321;48.398;11.754;2023-05-07T06:22:17;7.93;;;6.13;;
60478;SDS011;46321;48.398;11.754;2023-05-07T06:24:42;8.80;;;6.97;;
60478;SDS011;46321;48.398;11.754;2023-05-07T06:27:07;10.30;;;6.70;;
60478;SDS011;46321;48.398;11.754;2023-05-07T06:29:33;10.77;;;7.20;;
60478;SDS011;46321;48.398;11.754;2023-05-07T06:32:11;9.85;;;7.05;;
60478;SDS011;46321;48.398;11.754;2023-05-07T06:34:38;9.52;;;7.10;;
60478;SDS011;46321;48.398;11.754;2023-05-07T06:37:04;13.23;;;8.48;;
60478;SDS011;46321;48.398;11.754;2023-05-07T06:39:30;13.38;;;8.02;;
60478;SDS011;46321;48.398;11.754;2023-05-07T06:41:55;13.63;;;9.15;;
60478;SDS011;46321;48.398;11.754;2023-05-07T06:44:21;13.25;;;8.52;;
60478;SDS011;46321;48.398;11.754;2023-05-07T06:46:46;13.63;;;8.90;;
60478;SDS011;46321;48.398;11.754;2023-05-07T06:49:14;15.83;;;10.60;;
60478;SDS011;46321;48.398;11.754;2023-05-07T06:51:40;13.68;;;9.02;;
60478;SDS011;46321;48.398;11.754;2023-05-07T06:54:05;12.48;;;8.65;;
60478;SDS011;46321;48.398;11.754;2023-05-07T06:56:31;12.50;;;8.90;;
60478;SDS011;46321;48.398;11.754;2023-05-07T06:58:56;10.60;;;8.23;;
60478;SDS011;46321;48.398;11.754;2023-05-07T07:01:22;14.57;;;9.10;;
60478;SDS011;46321;48.398;11.754;2023-05-07T07:03:47;13.52;;;8.63;;
60478;SDS011;46321;48.398;11.754;2023-05-07T07:06:12;12.98;;;8.25;;
60478;SDS011;46321;48.398;11.754;2023-05-07T07:08:38;10.80;;;7.77;;
60478;SDS011;46321;48.398;11.754;2023-05-07T07:11:04;15.13;;;9.85;;
60478;SDS011;46321;48.398;11.754;2023-05-07T07:13:29;12.43;;;8.95;;
60478;SDS011;46321;48.398;11.754;2023-05-07T07:15:54;11.43;;;8.70;;
60478;SDS011;46321;48.398;11.754;2023-05-07T07:18:20;12.20;;;8.40;;
60478;SDS011;46321;48.398;11.754;2023-05-07T07:20:45;11.43;;;8.02;;
60478;SDS011;46321;48.398;11.754;2023-05-07T07:23:11;9.35;;;7.22;;
60478;SDS011;46321;48.398;11.754;2023-05-07T07:25:36;10.63;;;8.00;;
60478;SDS011;46321;48.398;11.754;2023-05-07T07:28:01;15.70;;;7.97;;
60478;SDS011;46321;48.398;11.754;2023-05-07T07:30:27;10.68;;;7.90;;
60478;SDS011;46321;48.398;11.754;2023-05-07T07:32:52;11.15;;;7.60;;
60478;SDS011;46321;48.398;11.754;2023-05-07T07:35:17;10.73;;;7.97;;
60478;SDS011;46321;48.398;11.754;2023-05-07T07:37:43;10.68;;;7.80;;
60478;SDS011;46321;48.398;11.754;2023-05-07T07:40:08;11.70;;;7.77;;
60478;SDS011;46321;48.398;11.754;2023-05-07T07:42:34;9.27;;;7.50;;
60478;SDS011;46321;48.398;11.754;2023-05-07T07:44:59;8.75;;;7.45;;
60478;SDS011;46321;48.398;11.754;2023-05-07T07:47:24;10.73;;;7.90;;
60478;SDS011;46321;48.398;11.754;2023-05-07T07:49:50;12.10;;;7.90;;
60478;SDS011;46321;48.398;11.754;2023-05-07T07:52:15;11.10;;;7.93;;
60478;SDS011;46321;48.398;11.754;2023-05-07T07:54:40;9.83;;;7.67;;
60478;SDS011;46321;48.398;11.754;2023-05-07T07:57:05;10.00;;;7.25;;
60478;SDS011;46321;48.398;11.754;2023-05-07T07:59:31;11.90;;;7.90;;
60478;SDS011;46321;48.398;11.754;2023-05-07T08:01:56;9.67;;;7.20;;
60478;SDS011;46321;48.398;11.754;2023-05-07T08:04:22;7.38;;;5.85;;
60478;SDS011;46321;48.398;11.754;2023-05-07T08:06:47;9.07;;;6.78;;
60478;SDS011;46321;48.398;11.754;2023-05-07T08:09:13;10.02;;;6.80;;
60478;SDS011;46321;48.398;11.754;2023-05-07T08:11:38;10.30;;;5.80;;
60478;SDS011;46321;48.398;11.754;2023-05-07T08:14:04;10.38;;;6.65;;
60478;SDS011;46321;48.398;11.754;2023-05-07T08:16:29;8.00;;;6.32;;
60478;SDS011;46321;48.398;11.754;2023-05-07T08:18:55;7.80;;;6.22;;
60478;SDS011;46321;48.398;11.754;2023-05-07T08:21:20;7.10;;;5.80;;
60478;SDS011;46321;48.398;11.754;2023-05-07T08:23:45;11.47;;;7.83;;
60478;SDS011;46321;48.398;11.754;2023-05-07T08:26:11;8.85;;;6.50;;
60478;SDS011;46321;48.398;11.754;2023-05-07T08:28:36;8.20;;;6.55;;
60478;SDS011;46321;48.398;11.754;2023-05-07T08:31:02;8.65;;;5.35;;
60478;SDS011;46321;48.398;11.754;2023-05-07T08:33:27;6.57;;;5.88;;
60478;SDS011;46321;48.398;11.754;2023-05-07T08:35:52;7.88;;;5.40;;
60478;SDS011;46321;48.398;11.754;2023-05-07T08:38:18;6.77;;;5.20;;
60478;SDS011;46321;48.398;11.754;2023-05-07T08:40:43;7.03;;;5.17;;
60478;SDS011;46321;48.398;11.754;2023-05-07T08:43:08;5.65;;;4.70;;
60478;SDS011;46321;48.398;11.754;2023-05-07T08:45:37;6.03;;;4.80;;
60478;SDS011;46321;48.398;11.754;2023-05-07T08:48:06;5.15;;;4.35;;
60478;SDS011;46321;48.398;11.754;2023-05-07T08:50:35;7.75;;;4.97;;
60478;SDS011;46321;48.398;11.754;2023-05-07T08:53:02;8.75;;;4.10;;
60478;SDS011;46321;48.398;11.754;2023-05-07T08:55:28;7.60;;;4.53;;
60478;SDS011;46321;48.398;11.754;2023-05-07T08:57:53;5.60;;;4.85;;
60478;SDS011;46321;48.398;11.754;2023-05-07T09:00:19;4.87;;;4.30;;
60478;SDS011;46321;48.398;11.754;2023-05-07T09:02:44;5.40;;;4.30;;
60478;SDS011;46321;48.398;11.754;2023-05-07T09:05:09;4.57;;;4.00;;
60478;SDS011;46321;48.398;11.754;2023-05-07T09:07:35;5.97;;;4.20;;
60478;SDS011;46321;48.398;11.754;2023-05-07T09:10:03;5.53;;;3.90;;
60478;SDS011;46321;48.398;11.754;2023-05-07T09:12:29;6.18;;;3.65;;
60478;SDS011;46321;48.398;11.754;2023-05-07T09:14:55;4.43;;;3.45;;
60478;SDS011;46321;48.398;11.754;2023-05-07T09:17:20;4.43;;;3.72;;
60478;SDS011;46321;48.398;11.754;2023-05-07T09:19:46;3.58;;;3.22;;
60478;SDS011;46321;48.398;11.754;2023-05-07T09:22:11;4.18;;;3.78;;
60478;SDS011;46321;48.398;11.754;2023-05-07T09:24:37;2.90;;;2.60;;
60478;SDS011;46321;48.398;11.754;2023-05-07T09:27:03;5.53;;;3.70;;
60478;SDS011;46321;48.398;11.754;2023-05-07T09:29:29;4.30;;;3.15;;
60478;SDS011;46321;48.398;11.754;2023-05-07T09:31:59;4.00;;;2.80;;
60478;SDS011;46321;48.398;11.754;2023-05-07T09:34:25;3.50;;;2.80;;
60478;SDS011;46321;48.398;11.754;2023-05-07T09:36:50;3.83;;;2.97;;
60478;SDS011;46321;48.398;11.754;2023-05-07T09:39:16;3.65;;;3.33;;
60478;SDS011;46321;48.398;11.754;2023-05-07T09:41:45;6.07;;;3.60;;
60478;SDS011;46321;48.398;11.754;2023-05-07T09:44:11;3.95;;;3.40;;
60478;SDS011;46321;48.398;11.754;2023-05-07T09:46:39;7.47;;;3.15;;
60478;SDS011;46321;48.398;11.754;2023-05-07T09:49:07;4.53;;;3.33;;
60478;SDS011;46321;48.398;11.754;2023-05-07T09:51:46;4.22;;;3.80;;
60478;SDS011;46321;48.398;11.754;2023-05-07T09:54:14;4.95;;;2.58;;
60478;SDS011;46321;48.398;11.754;2023-05-07T09:56:40;4.32;;;3.28;;
60478;SDS011;46321;48.398;11.754;2023-05-07T09:59:07;3.58;;;3.05;;
60478;SDS011;46321;48.398;11.754;2023-05-07T10:01:33;3.70;;;3.10;;
60478;SDS011;46321;48.398;11.754;2023-05-07T10:04:02;6.35;;;3.33;;
60478;SDS011;46321;48.398;11.754;2023-05-07T10:06:28;6.53;;;3.88;;
60478;SDS011;46321;48.398;11.754;2023-05-07T10:08:55;3.40;;;3.10;;
60478;SDS011;46321;48.398;11.754;2023-05-07T10:11:21;4.00;;;3.60;;
60478;SDS011;46321;48.398;11.754;2023-05-07T10:13:48;5.50;;;3.90;;
60478;SDS011;46321;48.398;11.754;2023-05-07T10:16:13;8.27;;;4.28;;
60478;SDS011;46321;48.398;11.754;2023-05-07T10:18:40;3.72;;;3.38;;
60478;SDS011;46321;48.398;11.754;2023-05-07T10:23:45;6.55;;;3.28;;
60478;SDS011;46321;48.398;11.754;2023-05-07T10:26:14;3.80;;;3.00;;
60478;SDS011;46321;48.398;11.754;2023-05-07T10:28:43;5.57;;;3.30;;
60478;SDS011;46321;48.398;11.754;2023-05-07T10:33:58;3.22;;;2.63;;
60478;SDS011;46321;48.398;11.754;2023-05-07T10:36:25;5.03;;;2.88;;
60478;SDS011;46321;48.398;11.754;2023-05-07T10:38:51;3.60;;;3.28;;
60478;SDS011;46321;48.398;11.754;2023-05-07T10:41:17;5.00;;;3.72;;
60478;SDS011;46321;48.398;11.754;2023-05-07T10:43:44;6.63;;;2.58;;
60478;SDS011;46321;48.398;11.754;2023-05-07T10:46:10;4.78;;;2.50;;
60478;SDS011;46321;48.398;11.754;2023-05-07T10:51:31;3.45;;;2.60;;
60478;SDS011;46321;48.398;11.754;2023-05-07T10:56:39;4.55;;;3.50;;
60478;SDS011;46321;48.398;11.754;2023-05-07T11:01:58;4.68;;;3.58;;
60478;SDS011;46321;48.398;11.754;2023-05-07T11:04:27;5.97;;;3.42;;
60478;SDS011;46321;48.398;11.754;2023-05-07T11:15:00;4.57;;;3.58;;
60478;SDS011;46321;48.398;11.754;2023-05-07T11:17:29;3.00;;;2.55;;
60478;SDS011;46321;48.398;11.754;2023-05-07T11:19:57;3.50;;;3.20;;
60478;SDS011;46321;48.398;11.754;2023-05-07T11:24:59;3.50;;;3.08;;
60478;SDS011;46321;48.398;11.754;2023-05-07T11:27:25;6.50;;;3.38;;
60478;SDS011;46321;48.398;11.754;2023-05-07T11:29:51;2.97;;;2.67;;
60478;SDS011;46321;48.398;11.754;2023-05-07T11:32:22;3.50;;;3.15;;
60478;SDS011;46321;48.398;11.754;2023-05-07T11:34:51;6.22;;;2.85;;
60478;SDS011;46321;48.398;11.754;2023-05-07T11:37:18;3.28;;;2.67;;
60478;SDS011;46321;48.398;11.754;2023-05-07T11:39:44;4.10;;;2.80;;
60478;SDS011;46321;48.398;11.754;2023-05-07T11:45:10;5.15;;;3.03;;
60478;SDS011;46321;48.398;11.754;2023-05-07T11:47:35;4.83;;;2.90;;
60478;SDS011;46321;48.398;11.754;2023-05-07T11:50:02;3.53;;;2.88;;
60478;SDS011;46321;48.398;11.754;2023-05-07T11:52:30;4.68;;;3.28;;
60478;SDS011;46321;48.398;11.754;2023-05-07T11:54:56;4.43;;;3.13;;
60478;SDS011;46321;48.398;11.754;2023-05-07T11:57:22;2.95;;;2.65;;
60478;SDS011;46321;48.398;11.754;2023-05-07T11:59:52;4.25;;;2.40;;
60478;SDS011;46321;48.398;11.754;2023-05-07T12:02:21;3.80;;;2.70;;
60478;SDS011;46321;48.398;11.754;2023-05-07T12:04:47;2.67;;;2.38;;
60478;SDS011;46321;48.398;11.754;2023-05-07T12:07:12;2.45;;;2.20;;
60478;SDS011;46321;48.398;11.754;2023-05-07T12:09:40;2.47;;;2.10;;
60478;SDS011;46321;48.398;11.754;2023-05-07T12:12:06;2.20;;;2.00;;
60478;SDS011;46321;48.398;11.754;2023-05-07T12:14:31;2.95;;;2.65;;
60478;SDS011;46321;48.398;11.754;2023-05-07T12:16:57;3.30;;;2.35;;
60478;SDS011;46321;48.398;11.754;2023-05-07T12:19:27;3.67;;;2.50;;
60478;SDS011;46321;48.398;11.754;2023-05-07T12:21:53;2.70;;;2.30;;
60478;SDS011;46321;48.398;11.754;2023-05-07T12:24:19;4.00;;;2.70;;
60478;SDS011;46321;48.398;11.754;2023-05-07T12:26:44;3.07;;;2.73;;
60478;SDS011;46321;48.398;11.754;2023-05-07T12:29:09;2.40;;;2.05;;
60478;SDS011;46321;48.398;11.754;2023-05-07T12:31:35;2.83;;;1.73;;
60478;SDS011;46321;48.398;11.754;2023-05-07T12:34:00;2.47;;;2.10;;
60478;SDS011;46321;48.398;11.754;2023-05-07T12:36:25;2.72;;;2.17;;
60478;SDS011;46321;48.398;11.754;2023-05-07T12:38:51;2.70;;;2.17;;
60478;SDS011;46321;48.398;11.754;2023-05-07T12:41:16;2.38;;;2.17;;
60478;SDS011;46321;48.398;11.754;2023-05-07T12:43:44;3.30;;;2.10;;
60478;SDS011;46321;48.398;11.754;2023-05-07T12:46:10;2.30;;;2.10;;
60478;SDS011;46321;48.398;11.754;2023-05-07T12:48:38;2.47;;;2.08;;
60478;SDS011;46321;48.398;11.754;2023-05-07T12:51:08;2.85;;;1.88;;
60478;SDS011;46321;48.398;11.754;2023-05-07T12:53:39;2.13;;;1.90;;
60478;SDS011;46321;48.398;11.754;2023-05-07T12:56:07;3.33;;;2.58;;
60478;SDS011;46321;48.398;11.754;2023-05-07T12:58:33;2.17;;;1.98;;
60478;SDS011;46321;48.398;11.754;2023-05-07T13:01:00;3.47;;;2.30;;
60478;SDS011;46321;48.398;11.754;2023-05-07T13:03:30;5.88;;;2.10;;
60478;SDS011;46321;48.398;11.754;2023-05-07T13:06:03;2.42;;;2.15;;
60478;SDS011;46321;48.398;11.754;2023-05-07T13:08:31;2.08;;;1.88;;
60478;SDS011;46321;48.398;11.754;2023-05-07T13:10:58;2.92;;;1.80;;
60478;SDS011;46321;48.398;11.754;2023-05-07T13:13:25;2.03;;;1.80;;
60478;SDS011;46321;48.398;11.754;2023-05-07T13:15:50;2.30;;;2.10;;
60478;SDS011;46321;48.398;11.754;2023-05-07T13:18:16;2.83;;;2.10;;
60478;SDS011;46321;48.398;11.754;2023-05-07T13:20:41;2.40;;;1.90;;
60478;SDS011;46321;48.398;11.754;2023-05-07T13:23:06;2.22;;;2.03;;
60478;SDS011;46321;48.398;11.754;2023-05-07T13:25:31;3.40;;;2.10;;
60478;SDS011;46321;48.398;11.754;2023-05-07T13:27:57;2.23;;;2.03;;
60478;SDS011;46321;48.398;11.754;2023-05-07T15:38:36;2.33;;;2.10;;
60478;SDS011;46321;48.398;11.754;2023-05-07T15:41:01;2.95;;;2.10;;
60478;SDS011;46321;48.398;11.754;2023-05-07T15:43:27;3.65;;;2.13;;
60478;SDS011;46321;48.398;11.754;2023-05-07T15:45:52;3.90;;;2.50;;
60478;SDS011;46321;48.398;11.754;2023-05-07T15:48:18;2.30;;;2.10;;
60478;SDS011;46321;48.398;11.754;2023-05-07T15:50:43;2.40;;;1.90;;
60478;SDS011;46321;48.398;11.754;2023-05-07T15:53:08;3.25;;;2.08;;
60478;SDS011;46321;48.398;11.754;2023-05-07T15:55:34;4.32;;;1.67;;
60478;SDS011;46321;48.398;11.754;2023-05-07T15:57:59;2.30;;;2.00;;
60478;SDS011;46321;48.398;11.754;2023-05-07T16:00:25;3.38;;;2.30;;
60478;SDS011;46321;48.398;11.754;2023-05-07T16:02:52;4.22;;;2.10;;
60478;SDS011;46321;48.398;11.754;2023-05-07T16:05:17;2.10;;;1.90;;
60478;SDS011;46321;48.398;11.754;2023-05-07T16:07:43;4.13;;;2.30;;
60478;SDS011;46321;48.398;11.754;2023-05-07T16:10:08;2.30;;;2.00;;
60478;SDS011;46321;48.398;11.754;2023-05-07T16:12:35;2.90;;;2.10;;
60478;SDS011;46321;48.398;11.754;2023-05-07T16:15:00;3.63;;;2.63;;
60478;SDS011;46321;48.398;11.754;2023-05-07T16:17:25;2.63;;;2.42;;
60478;SDS011;46321;48.398;11.754;2023-05-07T16:19:51;2.70;;;2.30;;
60478;SDS011;46321;48.398;11.754;2023-05-07T16:22:16;3.50;;;2.40;;
60478;SDS011;46321;48.398;11.754;2023-05-07T16:24:41;4.70;;;2.25;;
60478;SDS011;46321;48.398;11.754;2023-05-07T16:27:07;2.92;;;2.13;;
60478;SDS011;46321;48.398;11.754;2023-05-07T16:29:32;3.00;;;2.50;;
60478;SDS011;46321;48.398;11.754;2023-05-07T16:31:57;3.65;;;2.40;;
60478;SDS011;46321;48.398;11.754;2023-05-07T16:34:23;5.73;;;3.30;;
60478;SDS011;46321;48.398;11.754;2023-05-07T16:36:48;8.83;;;4.90;;
60478;SDS011;46321;48.398;11.754;2023-05-07T16:39:13;5.18;;;4.03;;
60478;SDS011;46321;48.398;11.754;2023-05-07T16:41:39;6.20;;;3.80;;
60478;SDS011;46321;48.398;11.754;2023-05-07T16:44:04;3.30;;;3.00;;
60478;SDS011;46321;48.398;11.754;2023-05-07T16:46:29;4.68;;;4.18;;
60478;SDS011;46321;48.398;11.754;2023-05-07T16:48:54;4.13;;;3.25;;
60478;SDS011;46321;48.398;11.754;2023-05-07T16:51:20;4.50;;;2.90;;
60478;SDS011;46321;48.398;11.754;2023-05-07T16:53:48;4.68;;;2.55;;
60478;SDS011;46321;48.398;11.754;2023-05-07T16:56:13;2.92;;;2.30;;
60478;SDS011;46321;48.398;11.754;2023-05-07T16:58:38;4.57;;;2.80;;